createdAt,value
2016-06-16T00:00:42.100Z,24.05
2016-06-16T00:01:42.088Z,24.05
2016-06-16T00:02:42.232Z,23.97
2016-06-16T00:03:42.203Z,23.9
2016-06-16T00:04:42.174Z,23.77
2016-06-16T00:05:42.177Z,23.72
2016-06-16T00:06:42.290Z,23.79
2016-06-16T00:07:42.122Z,23.7
2016-06-16T00:08:42.109Z,23.65
2016-06-16T00:09:42.096Z,23.6
2016-06-16T00:10:43.021Z,23.55
2016-06-16T00:11:42.055Z,23.47
2016-06-16T00:12:42.027Z,23.53
2016-06-16T00:13:42.016Z,23.46
2016-06-16T00:14:41.986Z,23.47
2016-06-16T00:15:41.974Z,23.35
2016-06-16T00:16:41.962Z,23.35
2016-06-16T00:17:41.934Z,23.35
2016-06-16T00:18:41.920Z,23.35
2016-06-16T00:19:41.893Z,23.38
2016-06-16T00:20:41.880Z,23.32
2016-06-16T00:21:41.852Z,23.45
2016-06-16T00:22:41.839Z,23.49
2016-06-16T00:23:41.827Z,23.49
2016-06-16T00:24:41.830Z,23.55
2016-06-16T00:25:42.411Z,23.55
2016-06-16T00:26:41.773Z,23.61
2016-06-16T00:27:41.761Z,23.67
2016-06-16T00:28:41.717Z,23.67
2016-06-16T00:29:41.720Z,23.76
2016-06-16T00:30:41.708Z,23.79
2016-06-16T00:31:41.664Z,23.89
2016-06-16T00:32:41.652Z,23.97
2016-06-16T00:33:41.638Z,23.97
2016-06-16T00:34:41.611Z,24.07
2016-06-16T00:35:41.598Z,24.1
2016-06-16T00:36:41.570Z,24.08
2016-06-16T00:37:41.557Z,24.08
2016-06-16T00:38:41.545Z,24.2
2016-06-16T00:39:41.501Z,24.24
2016-06-16T00:40:41.707Z,24.29
2016-06-16T00:41:41.320Z,24.29
2016-06-16T00:42:41.447Z,24.31
2016-06-16T00:43:41.435Z,24.26
2016-06-16T00:44:41.423Z,24.29
2016-06-16T00:45:41.410Z,24.29
2016-06-16T00:46:41.397Z,24.32
2016-06-16T00:47:41.385Z,24.27
2016-06-16T00:48:41.357Z,24.34
2016-06-16T00:49:41.329Z,24.2
2016-06-16T00:50:41.332Z,24.12
2016-06-16T00:51:41.428Z,24.12
2016-06-16T00:52:41.135Z,24.01
2016-06-16T00:53:41.106Z,24.1
2016-06-16T00:54:41.234Z,23.94
2016-06-16T00:55:41.410Z,23.92
2016-06-16T00:56:41.037Z,23.8
2016-06-16T00:57:41.182Z,23.79
2016-06-16T00:58:41.154Z,23.7
2016-06-16T00:59:41.157Z,23.72
2016-06-16T01:00:41.127Z,23.61
2016-06-16T01:01:41.116Z,23.6
2016-06-16T01:02:41.384Z,23.58
2016-06-16T01:03:41.059Z,23.6
2016-06-16T01:04:41.062Z,23.46
2016-06-16T01:05:41.034Z,23.39
2016-06-16T01:06:41.006Z,23.42
2016-06-16T01:07:40.993Z,23.38
2016-06-16T01:08:40.981Z,23.38
2016-06-16T01:09:41.140Z,23.39
2016-06-16T01:10:41.019Z,23.35
2016-06-16T01:11:40.897Z,23.38
2016-06-16T01:12:40.978Z,23.35
2016-06-16T01:13:40.886Z,23.42
2016-06-16T01:14:40.937Z,23.46
2016-06-16T01:15:40.690Z,23.49
2016-06-16T01:16:40.818Z,23.57
2016-06-16T01:17:40.805Z,23.64
2016-06-16T01:18:40.777Z,23.71
2016-06-16T01:19:40.764Z,23.8
2016-06-16T01:20:40.753Z,23.77
2016-06-16T01:21:40.724Z,23.89
2016-06-16T01:22:40.695Z,23.94
2016-06-16T01:23:40.698Z,24.04
2016-06-16T01:24:40.686Z,24.05
2016-06-16T01:25:40.705Z,24.13
2016-06-16T01:26:40.646Z,24.16
2016-06-16T01:27:40.602Z,24.27
2016-06-16T01:28:40.604Z,24.34
2016-06-16T01:29:40.577Z,24.39
2016-06-16T01:30:40.564Z,24.38
2016-06-16T01:31:40.536Z,24.39
2016-06-16T01:32:40.523Z,24.42
2016-06-16T01:33:40.495Z,24.49
2016-06-16T01:34:40.482Z,24.5
2016-06-16T01:35:40.470Z,24.42
2016-06-16T01:36:40.441Z,24.49
2016-06-16T01:37:40.429Z,24.38
2016-06-16T01:38:40.433Z,24.29
2016-06-16T01:39:40.404Z,24.31
2016-06-16T01:40:40.391Z,24.17
2016-06-16T01:41:40.364Z,24.08
2016-06-16T01:42:40.335Z,24.07
2016-06-16T01:43:40.307Z,24.05
2016-06-16T01:44:40.310Z,23.97
2016-06-16T01:45:40.282Z,23.89
2016-06-16T01:46:40.254Z,23.75
2016-06-16T01:47:40.241Z,23.76
2016-06-16T01:48:40.244Z,23.64
2016-06-16T01:49:40.217Z,23.61
2016-06-16T01:50:40.188Z,23.6
2016-06-16T01:51:40.175Z,23.58
2016-06-16T01:52:40.148Z,23.49
2016-06-16T01:53:40.135Z,23.43
2016-06-16T01:54:40.106Z,23.42
2016-06-16T01:55:40.703Z,23.4
2016-06-16T01:56:40.082Z,23.35
2016-06-16T01:57:40.053Z,23.27
2016-06-16T01:58:40.041Z,23.32
2016-06-16T01:59:40.012Z,23.32
2016-06-16T02:00:40.000Z,23.31
2016-06-16T02:01:39.987Z,23.31
2016-06-16T02:02:39.976Z,23.31
2016-06-16T02:03:39.946Z,23.4
2016-06-16T02:04:39.919Z,23.45
2016-06-16T02:05:39.905Z,23.47
2016-06-16T02:06:39.878Z,23.64
2016-06-16T02:07:39.865Z,23.64
2016-06-16T02:08:39.837Z,23.68
2016-06-16T02:09:39.840Z,23.71
2016-06-16T02:10:39.796Z,23.72
2016-06-16T02:11:39.893Z,23.8
2016-06-16T02:12:39.787Z,23.89
2016-06-16T02:13:39.743Z,24.04
2016-06-16T02:14:39.730Z,24.07
2016-06-16T02:15:39.733Z,24.08
2016-06-16T02:16:39.690Z,24.13
2016-06-16T02:17:39.677Z,24.1
2016-06-16T02:18:39.649Z,24.2
2016-06-16T02:19:39.637Z,24.26
2016-06-16T02:20:39.640Z,24.22
2016-06-16T02:21:39.439Z,24.31
2016-06-16T02:22:39.583Z,24.29
2016-06-16T02:23:39.571Z,24.31
2016-06-16T02:24:39.543Z,24.27
2016-06-16T02:25:39.530Z,24.37
2016-06-16T02:26:39.736Z,24.44
2016-06-16T02:27:39.505Z,24.34
2016-06-16T02:28:39.462Z,24.38
2016-06-16T02:29:39.448Z,24.34
2016-06-16T02:30:39.436Z,24.29
2016-06-16T02:31:39.407Z,24.27
2016-06-16T02:32:39.396Z,24.14
2016-06-16T02:33:39.382Z,24.16
2016-06-16T02:34:39.355Z,24.04
2016-06-16T02:35:39.342Z,23.97
2016-06-16T02:36:39.314Z,23.9
2016-06-16T02:37:39.301Z,23.9
2016-06-16T02:38:39.289Z,23.79
2016-06-16T02:39:39.276Z,23.71
2016-06-16T02:40:39.248Z,23.67
2016-06-16T02:41:39.626Z,23.61
2016-06-16T02:42:39.223Z,23.6
2016-06-16T02:43:39.179Z,23.58
2016-06-16T02:44:39.026Z,23.46
2016-06-16T02:45:39.154Z,23.47
2016-06-16T02:46:39.141Z,23.39
2016-06-16T02:47:39.113Z,23.39
2016-06-16T02:48:39.101Z,23.34
2016-06-16T02:49:39.073Z,23.32
2016-06-16T02:50:39.059Z,23.32
2016-06-16T02:51:39.032Z,23.38
2016-06-16T02:52:39.019Z,23.42
2016-06-16T02:53:39.007Z,23.42
2016-06-16T02:54:38.978Z,23.4
2016-06-16T02:55:38.967Z,23.49
2016-06-16T02:56:39.766Z,23.57
2016-06-16T02:57:38.925Z,23.64
2016-06-16T02:58:38.898Z,23.64
2016-06-16T02:59:38.901Z,23.72
2016-06-16T03:00:38.872Z,23.82
2016-06-16T03:01:38.844Z,23.8
2016-06-16T03:02:38.831Z,23.87
2016-06-16T03:03:38.819Z,23.98
2016-06-16T03:04:38.791Z,24.07
2016-06-16T03:05:38.778Z,23.95
2016-06-16T03:06:38.765Z,24
2016-06-16T03:07:38.597Z,24.1
2016-06-16T03:08:38.709Z,24.14
2016-06-16T03:09:38.696Z,24.22
2016-06-16T03:10:38.668Z,24.24
2016-06-16T03:11:38.875Z,24.22
2016-06-16T03:12:38.487Z,24.34
2016-06-16T03:13:38.614Z,24.37
2016-06-16T03:14:38.602Z,24.31
2016-06-16T03:15:38.590Z,24.35
2016-06-16T03:16:38.562Z,24.45
2016-06-16T03:17:38.549Z,24.49
2016-06-16T03:18:38.537Z,24.42
2016-06-16T03:19:38.524Z,24.41
2016-06-16T03:20:38.496Z,24.35
2016-06-16T03:21:38.483Z,24.27
2016-06-16T03:22:38.455Z,24.29
2016-06-16T03:23:38.442Z,24.2
2016-06-16T03:24:38.415Z,24.12
2016-06-16T03:25:38.401Z,24.05
2016-06-16T03:26:38.233Z,23.97
2016-06-16T03:27:38.346Z,23.89
2016-06-16T03:28:38.349Z,23.79
2016-06-16T03:29:38.367Z,23.75
2016-06-16T03:30:38.308Z,23.7
2016-06-16T03:31:38.295Z,23.71
2016-06-16T03:32:38.267Z,23.6
2016-06-16T03:33:38.255Z,23.6
2016-06-16T03:34:38.242Z,23.52
2016-06-16T03:35:38.198Z,23.39
2016-06-16T03:36:38.186Z,23.38
2016-06-16T03:37:38.173Z,23.35
2016-06-16T03:38:38.160Z,23.29
2016-06-16T03:39:38.132Z,23.35
2016-06-16T03:40:38.119Z,23.32
2016-06-16T03:41:37.951Z,23.38
2016-06-16T03:42:38.266Z,23.34
2016-06-16T03:43:38.066Z,23.39
2016-06-16T03:44:38.054Z,23.39
2016-06-16T03:45:38.041Z,23.45
2016-06-16T03:46:38.029Z,23.47
2016-06-16T03:47:38.001Z,23.61
2016-06-16T03:48:37.972Z,23.61
2016-06-16T03:49:37.960Z,23.68
2016-06-16T03:50:37.933Z,23.72
2016-06-16T03:51:37.919Z,23.79
2016-06-16T03:52:37.891Z,23.89
2016-06-16T03:53:37.862Z,23.86
2016-06-16T03:54:37.851Z,23.97
2016-06-16T03:55:37.853Z,24.01
2016-06-16T03:56:38.279Z,24.05
2016-06-16T03:57:37.797Z,24.07
2016-06-16T03:58:37.785Z,24.1
2016-06-16T03:59:37.756Z,24.12
2016-06-16T04:00:37.728Z,24.2
2016-06-16T04:01:37.716Z,24.19
2016-06-16T04:02:37.687Z,24.23
2016-06-16T04:03:37.691Z,24.34
2016-06-16T04:04:37.662Z,24.39
2016-06-16T04:05:37.649Z,24.39
2016-06-16T04:06:37.481Z,24.45
2016-06-16T04:07:37.625Z,24.37
2016-06-16T04:08:37.674Z,24.32
2016-06-16T04:09:37.568Z,24.37
2016-06-16T04:10:37.556Z,24.27
2016-06-16T04:11:37.903Z,24.29
2016-06-16T04:12:37.515Z,24.2
2016-06-16T04:13:37.502Z,24.23
2016-06-16T04:14:37.552Z,24.1
2016-06-16T04:15:37.446Z,24.02
2016-06-16T04:16:37.452Z,24.02
2016-06-16T04:17:37.480Z,23.98
2016-06-16T04:18:37.491Z,23.89
2016-06-16T04:19:37.362Z,23.79
2016-06-16T04:20:37.545Z,23.75
2016-06-16T04:21:37.546Z,23.62
2016-06-16T04:22:37.407Z,23.65
2016-06-16T04:23:37.549Z,23.64
2016-06-16T04:24:37.551Z,23.62
2016-06-16T04:25:37.537Z,23.53
2016-06-16T04:26:37.534Z,23.5
2016-06-16T04:27:37.511Z,23.45
2016-06-16T04:28:37.488Z,23.39
2016-06-16T04:29:37.480Z,23.34
2016-06-16T04:30:37.473Z,23.34
2016-06-16T04:31:37.323Z,23.4
2016-06-16T04:32:37.438Z,23.4
2016-06-16T04:33:37.427Z,23.39
2016-06-16T04:34:37.416Z,23.42
2016-06-16T04:35:37.389Z,23.5
2016-06-16T04:36:37.379Z,23.53
2016-06-16T04:37:37.351Z,23.6
2016-06-16T04:38:37.168Z,23.58
2016-06-16T04:39:37.328Z,23.68
2016-06-16T04:40:37.145Z,23.68
2016-06-16T04:41:37.288Z,23.7
2016-06-16T04:42:37.245Z,23.8
2016-06-16T04:43:37.451Z,23.89
2016-06-16T04:44:37.299Z,23.94
2016-06-16T04:45:37.208Z,24.01
2016-06-16T04:46:37.071Z,24.07
2016-06-16T04:47:37.183Z,24.05
2016-06-16T04:48:37.156Z,24.14
2016-06-16T04:49:37.142Z,24.24
2016-06-16T04:50:37.396Z,24.22
2016-06-16T04:51:37.087Z,24.26
2016-06-16T04:52:36.918Z,24.32
2016-06-16T04:53:37.124Z,24.45
2016-06-16T04:54:37.033Z,24.44
2016-06-16T04:55:37.021Z,24.44
2016-06-16T04:56:38.008Z,24.54
2016-06-16T04:57:37.262Z,24.5
2016-06-16T04:58:36.967Z,24.52
2016-06-16T04:59:36.939Z,24.54
2016-06-16T05:00:36.911Z,24.54
2016-06-16T05:01:36.898Z,24.47
2016-06-16T05:02:36.870Z,24.45
2016-06-16T05:03:36.858Z,24.44
2016-06-16T05:04:36.861Z,24.35
2016-06-16T05:05:36.863Z,24.26
2016-06-16T05:06:36.805Z,24.12
2016-06-16T05:07:36.792Z,24.07
2016-06-16T05:08:36.779Z,24.08
2016-06-16T05:09:36.751Z,24.07
2016-06-16T05:10:36.832Z,24.04
2016-06-16T05:11:36.992Z,23.97
2016-06-16T05:12:36.917Z,23.85
2016-06-16T05:13:36.983Z,23.89
2016-06-16T05:14:36.658Z,23.7
2016-06-16T05:15:36.645Z,23.71
2016-06-16T05:16:36.616Z,23.67
2016-06-16T05:17:36.604Z,23.65
2016-06-16T05:18:36.576Z,23.57
2016-06-16T05:19:36.563Z,23.6
2016-06-16T05:20:36.707Z,23.58
2016-06-16T05:21:36.741Z,23.55
2016-06-16T05:22:36.666Z,23.5
2016-06-16T05:23:36.622Z,23.49
2016-06-16T05:24:36.563Z,23.49
2016-06-16T05:25:36.597Z,23.47
2016-06-16T05:26:37.148Z,23.47
2016-06-16T05:27:36.370Z,23.46
2016-06-16T05:28:36.513Z,23.46
2016-06-16T05:29:36.437Z,23.49
2016-06-16T05:30:36.409Z,23.52
2016-06-16T05:31:36.460Z,23.58
2016-06-16T05:32:36.307Z,23.61
2016-06-16T05:33:36.325Z,23.61
2016-06-16T05:34:36.500Z,23.68
2016-06-16T05:35:36.284Z,23.67
2016-06-16T05:36:36.490Z,23.62
2016-06-16T05:37:36.556Z,23.76
2016-06-16T05:38:36.590Z,23.76
2016-06-16T05:39:36.296Z,23.89
2016-06-16T05:40:36.393Z,23.92
2016-06-16T05:41:36.787Z,23.9
2016-06-16T05:42:36.009Z,23.98
2016-06-16T05:43:36.231Z,24.08
2016-06-16T05:44:36.234Z,24.07
2016-06-16T05:45:36.143Z,24.1
2016-06-16T05:46:36.131Z,24.13
2016-06-16T05:47:36.211Z,24.16
2016-06-16T05:48:36.356Z,24.14
2016-06-16T05:49:36.030Z,24.16
2016-06-16T05:50:35.815Z,24.2
2016-06-16T05:51:35.943Z,24.27
2016-06-16T05:52:36.196Z,24.23
2016-06-16T05:53:36.277Z,24.27
2016-06-16T05:54:36.328Z,24.23
2016-06-16T05:55:36.284Z,24.34
2016-06-16T05:56:36.099Z,24.2
2016-06-16T05:57:36.290Z,24.17
2016-06-16T05:58:36.183Z,24.26
2016-06-16T05:59:36.139Z,24.17
2016-06-16T06:00:35.876Z,24.12
2016-06-16T06:01:35.927Z,24.04
2016-06-16T06:02:38.945Z,23.98
2016-06-16T06:03:35.980Z,24.05
2016-06-16T06:04:35.983Z,23.95
2016-06-16T06:05:36.001Z,23.94
2016-06-16T06:06:35.645Z,23.92
2016-06-16T06:07:36.008Z,23.92
2016-06-16T06:08:35.964Z,23.85
2016-06-16T06:09:35.561Z,23.8
2016-06-16T06:10:35.892Z,23.8
2016-06-16T06:11:36.020Z,23.7
2016-06-16T06:12:36.210Z,23.7
2016-06-16T06:13:35.713Z,23.68
2016-06-16T06:14:35.732Z,23.7
2016-06-16T06:15:35.704Z,23.61
2016-06-16T06:16:35.613Z,23.7
2016-06-16T06:17:36.038Z,23.65
2016-06-16T06:18:35.526Z,23.65
2016-06-16T06:19:35.264Z,23.67
2016-06-16T06:20:35.391Z,23.7
2016-06-16T06:21:35.364Z,23.61
2016-06-16T06:22:35.350Z,23.67
2016-06-16T06:23:35.339Z,23.71
2016-06-16T06:24:35.637Z,23.62
2016-06-16T06:25:35.376Z,23.64
2016-06-16T06:26:35.348Z,23.68
2016-06-16T06:27:35.694Z,23.67
2016-06-16T06:28:35.463Z,23.61
2016-06-16T06:29:35.544Z,23.61
2016-06-16T06:30:35.188Z,23.67
2016-06-16T06:31:35.534Z,23.61
2016-06-16T06:32:38.569Z,23.68
2016-06-16T06:33:35.572Z,23.67
2016-06-16T06:34:35.373Z,23.67
2016-06-16T06:35:35.141Z,23.72
2016-06-16T06:36:35.410Z,23.7
2016-06-16T06:37:35.177Z,23.68
2016-06-16T06:38:35.274Z,23.68
2016-06-16T06:39:35.044Z,23.7
2016-06-16T06:40:35.094Z,23.68
2016-06-16T06:41:35.253Z,23.61
2016-06-16T06:42:35.397Z,23.67
2016-06-16T06:43:35.181Z,23.7
2016-06-16T06:44:35.137Z,23.62
2016-06-16T06:45:34.952Z,23.65
2016-06-16T06:46:34.877Z,23.71
2016-06-16T06:47:35.208Z,23.65
2016-06-16T06:48:34.884Z,23.7
2016-06-16T06:49:34.981Z,23.65
2016-06-16T06:50:34.812Z,23.65
2016-06-16T06:51:35.049Z,23.68
2016-06-16T06:52:34.974Z,23.68
2016-06-16T06:53:35.039Z,23.64
2016-06-16T06:54:34.793Z,23.67
2016-06-16T06:55:34.890Z,23.65
2016-06-16T06:56:34.736Z,23.64
2016-06-16T06:57:35.333Z,23.67
2016-06-16T06:58:34.680Z,23.71
2016-06-16T06:59:35.042Z,23.79
2016-06-16T07:00:34.998Z,23.8
2016-06-16T07:01:34.767Z,23.71
2016-06-16T07:02:34.787Z,23.83
2016-06-16T07:03:34.915Z,23.77
2016-06-16T07:04:34.557Z,23.76
2016-06-16T07:05:34.592Z,23.85
2016-06-16T07:06:34.783Z,23.86
2016-06-16T07:07:34.520Z,23.89
2016-06-16T07:08:34.664Z,23.97
2016-06-16T07:09:34.495Z,23.94
2016-06-16T07:10:34.779Z,23.9
2016-06-16T07:11:34.814Z,24
2016-06-16T07:12:34.410Z,23.95
2016-06-16T07:13:37.679Z,24.07
2016-06-16T07:14:34.635Z,24.01
2016-06-16T07:15:34.452Z,24.12
2016-06-16T07:16:34.517Z,24.08
2016-06-16T07:17:34.301Z,24.05
2016-06-16T07:18:34.319Z,24.13
2016-06-16T07:19:34.245Z,24.04
2016-06-16T07:20:34.529Z,24.04
2016-06-16T07:21:34.407Z,23.97
2016-06-16T07:22:34.457Z,24.12
2016-06-16T07:23:34.679Z,24.01
2016-06-16T07:24:34.308Z,24
2016-06-16T07:25:34.310Z,23.9
2016-06-16T07:26:34.094Z,23.92
2016-06-16T07:27:34.410Z,23.89
2016-06-16T07:28:34.428Z,23.92
2016-06-16T07:29:34.120Z,23.97
2016-06-16T07:30:34.028Z,23.77
2016-06-16T07:31:34.047Z,23.79
2016-06-16T07:32:40.347Z,23.79
2016-06-16T07:33:34.273Z,23.77
2016-06-16T07:34:34.479Z,23.72
2016-06-16T07:48:36.818Z,23.62
2016-06-16T07:48:41.130Z,23.62
2016-06-16T07:48:53.661Z,23.64
2016-06-16T07:49:53.711Z,23.68
2016-06-16T07:50:53.683Z,23.68
2016-06-16T07:51:53.686Z,23.7
2016-06-16T07:52:53.502Z,23.64
2016-06-16T07:53:53.692Z,23.68
2016-06-16T07:54:53.805Z,23.67
2016-06-16T07:55:53.715Z,23.64
2016-06-16T07:56:53.577Z,23.64
2016-06-16T07:57:53.892Z,23.72
2016-06-16T07:58:53.832Z,23.61
2016-06-16T07:59:53.508Z,23.67
2016-06-16T08:00:53.355Z,23.67
2016-06-16T08:01:53.467Z,23.67
2016-06-16T08:02:53.501Z,23.64
2016-06-16T08:03:53.567Z,23.67
2016-06-16T08:04:53.757Z,23.72
2016-06-16T08:05:53.620Z,23.71
2016-06-16T08:06:53.452Z,23.72
2016-06-16T08:07:53.861Z,23.71
2016-06-16T08:08:53.598Z,23.72
2016-06-16T08:09:53.617Z,23.83
2016-06-16T08:10:53.542Z,23.75
2016-06-16T08:11:53.481Z,23.77
2016-06-16T08:12:53.376Z,23.72
2016-06-16T08:13:56.332Z,23.79
2016-06-16T08:14:53.225Z,23.7
2016-06-16T08:15:53.463Z,23.76
2016-06-16T08:16:53.185Z,23.8
2016-06-16T08:17:53.125Z,23.82
2016-06-16T08:18:53.004Z,23.82
2016-06-16T08:19:53.147Z,23.82
2016-06-16T08:20:52.978Z,23.82
2016-06-16T08:21:53.076Z,23.79
2016-06-16T08:22:53.172Z,23.79
2016-06-16T08:23:53.144Z,23.83
2016-06-16T08:24:52.990Z,23.82
2016-06-16T08:25:53.071Z,23.76
2016-06-16T08:26:53.074Z,23.8
2016-06-16T08:27:53.203Z,23.8
2016-06-16T08:28:53.206Z,23.79
2016-06-16T08:29:52.991Z,23.83
2016-06-16T08:30:53.181Z,23.79
2016-06-16T08:31:53.059Z,23.82
2016-06-16T08:32:52.937Z,23.79
2016-06-16T08:33:52.846Z,23.79
2016-06-16T08:34:53.022Z,23.82
2016-06-16T08:35:52.697Z,23.86
2016-06-16T08:36:52.716Z,23.9
2016-06-16T08:37:52.655Z,23.75
2016-06-16T08:38:52.675Z,23.82
2016-06-16T08:39:52.897Z,23.89
2016-06-16T08:40:52.728Z,23.92
2016-06-16T08:41:52.918Z,23.95
2016-06-16T08:42:52.391Z,23.89
2016-06-16T08:43:52.628Z,23.95
2016-06-16T08:44:52.678Z,23.9
2016-06-16T08:45:52.806Z,23.87
2016-06-16T08:46:52.419Z,23.89
2016-06-16T08:47:52.483Z,23.94
2016-06-16T08:48:16.471Z,23.97
2016-06-16T08:48:29.940Z,23.97
2016-06-16T08:49:29.428Z,23.92
2016-06-16T08:50:29.432Z,23.92
2016-06-16T08:51:29.559Z,24
2016-06-16T08:52:29.608Z,23.97
2016-06-16T08:53:29.644Z,23.95
2016-06-16T08:54:29.600Z,23.98
2016-06-16T08:55:29.462Z,23.97
2016-06-16T08:56:29.402Z,23.98
2016-06-16T08:57:29.499Z,23.94
2016-06-16T08:58:29.611Z,23.97
2016-06-16T08:59:29.474Z,23.97
2016-06-16T09:00:29.649Z,23.97
2016-06-16T09:01:29.511Z,23.97
2016-06-16T09:02:29.374Z,23.92
2016-06-16T09:03:29.236Z,24
2016-06-16T09:04:29.083Z,23.95
2016-06-16T09:05:29.009Z,23.95
2016-06-16T09:06:29.167Z,23.97
2016-06-16T09:07:29.092Z,23.97
2016-06-16T09:08:29.032Z,24
2016-06-16T09:09:29.099Z,23.92
2016-06-16T09:10:29.024Z,23.94
2016-06-16T09:11:28.980Z,23.97
2016-06-16T09:12:28.966Z,23.9
2016-06-16T09:13:28.939Z,23.86
2016-06-16T09:14:28.911Z,23.89
2016-06-16T09:15:28.898Z,23.87
2016-06-16T09:16:28.886Z,23.94
2016-06-16T09:17:28.685Z,23.87
2016-06-16T09:18:29.095Z,23.9
2016-06-16T09:19:28.802Z,23.85
2016-06-16T09:20:29.007Z,23.87
2016-06-16T09:21:31.527Z,23.87
2016-06-16T09:22:29.497Z,23.86
2016-06-16T09:23:29.078Z,23.9
2016-06-16T09:24:28.801Z,23.9
2016-06-16T09:25:28.867Z,23.97
2016-06-16T09:26:28.901Z,23.85
2016-06-16T09:27:29.045Z,23.85
2016-06-16T09:28:28.719Z,23.9
2016-06-16T09:29:29.004Z,23.87
2016-06-16T09:30:28.694Z,23.9
2016-06-16T09:31:28.775Z,23.94
2016-06-16T09:32:28.903Z,23.89
2016-06-16T09:33:28.423Z,23.92
2016-06-16T09:34:28.737Z,23.97
2016-06-16T09:35:28.773Z,23.94
2016-06-16T09:36:28.651Z,23.9
2016-06-16T09:37:28.763Z,23.94
2016-06-16T09:38:28.609Z,24.07
2016-06-16T09:39:28.644Z,23.98
2016-06-16T09:40:29.053Z,24.07
2016-06-16T09:41:28.697Z,24.08
2016-06-16T09:42:28.684Z,23.94
2016-06-16T09:43:28.281Z,24.05
2016-06-16T09:44:28.409Z,24.02
2016-06-16T09:45:28.662Z,24.08
2016-06-16T09:46:28.307Z,24.05
2016-06-16T09:47:28.262Z,24.07
2016-06-16T09:48:28.343Z,24.12
2016-06-16T09:49:28.113Z,24.05
2016-06-16T09:50:28.724Z,24.1
2016-06-16T09:51:28.572Z,24.1
2016-06-16T09:52:28.590Z,24.05
2016-06-16T09:53:28.562Z,24.02
2016-06-16T09:54:28.580Z,24.08
2016-06-16T09:55:28.349Z,24.13
2016-06-16T09:56:28.712Z,24.13
2016-06-16T09:57:28.402Z,24.05
2016-06-16T09:58:28.405Z,24.13
2016-06-16T09:59:28.330Z,24.07
2016-06-16T10:00:28.411Z,24.07
2016-06-16T10:01:28.180Z,24.13
2016-06-16T10:02:31.121Z,24.08
2016-06-16T10:03:28.359Z,24.1
2016-06-16T10:04:28.362Z,24.22
2016-06-16T10:05:28.130Z,24.13
2016-06-16T10:06:28.477Z,24.2
2016-06-16T10:07:27.995Z,24.1
2016-06-16T10:08:28.874Z,24.13
2016-06-16T10:09:28.127Z,24.12
2016-06-16T10:10:27.880Z,24.2
2016-06-16T10:11:27.961Z,24.12
2016-06-16T10:12:27.714Z,24.22
2016-06-16T10:13:27.795Z,24.23
2016-06-16T10:14:27.799Z,24.16
2016-06-16T10:15:27.802Z,24.16
2016-06-16T10:16:27.788Z,24.14
2016-06-16T10:17:27.839Z,24.22
2016-06-16T10:18:27.794Z,24.23
2016-06-16T10:19:27.814Z,24.2
2016-06-16T10:20:27.645Z,24.19
2016-06-16T10:21:27.711Z,24.23
2016-06-16T10:22:27.760Z,24.22
2016-06-16T10:23:27.779Z,24.24
2016-06-16T10:24:27.751Z,24.29
2016-06-16T10:25:27.769Z,24.27
2016-06-16T10:26:27.585Z,24.22
2016-06-16T10:27:27.511Z,24.22
2016-06-16T10:28:27.732Z,24.27
2016-06-16T10:29:27.501Z,24.23
2016-06-16T10:30:27.567Z,24.23
2016-06-16T10:31:27.538Z,24.23
2016-06-16T10:32:27.416Z,24.24
2016-06-16T10:33:27.576Z,24.27
2016-06-16T10:34:27.218Z,24.26
2016-06-16T10:35:27.535Z,24.29
2016-06-16T10:36:27.397Z,24.31
2016-06-16T10:37:27.385Z,24.34
2016-06-16T10:38:27.481Z,24.32
2016-06-16T10:39:27.844Z,24.34
2016-06-16T10:40:27.457Z,24.29
2016-06-16T10:41:27.381Z,24.26
2016-06-16T10:42:27.118Z,24.29
2016-06-16T10:43:27.403Z,24.41
2016-06-16T10:44:27.313Z,24.37
2016-06-16T10:45:27.253Z,24.41
2016-06-16T10:46:27.569Z,24.41
2016-06-16T10:47:26.994Z,24.41
2016-06-16T10:48:27.106Z,24.45
2016-06-16T10:49:27.015Z,24.41
2016-06-16T10:50:27.315Z,24.47
2016-06-16T10:51:27.115Z,24.42
2016-06-16T10:52:27.212Z,24.42
2016-06-16T10:53:27.449Z,24.5
2016-06-16T10:54:27.391Z,24.5
2016-06-16T10:55:26.768Z,24.42
2016-06-16T10:56:26.850Z,24.5
2016-06-16T10:57:26.962Z,24.45
2016-06-16T10:58:27.075Z,24.5
2016-06-16T10:59:26.998Z,24.44
2016-06-16T11:00:27.237Z,24.45
2016-06-16T11:01:27.068Z,24.56
2016-06-16T11:02:27.352Z,24.5
2016-06-16T11:03:26.934Z,24.54
2016-06-16T11:04:26.843Z,24.5
2016-06-16T11:07:49.368Z,24.54
2016-06-16T11:09:39.358Z,24.54
2016-06-16T11:09:52.265Z,24.49
2016-06-16T11:10:52.299Z,24.63
2016-06-16T11:11:52.333Z,24.57
2016-06-16T11:13:36.168Z,24.68
2016-06-16T11:13:52.230Z,24.63
2016-06-16T11:14:52.030Z,24.63
2016-06-16T11:15:52.033Z,24.59
2016-06-16T11:16:52.349Z,24.63
2016-06-16T11:17:52.117Z,24.64
2016-06-16T11:18:52.136Z,24.63
2016-06-16T11:19:51.889Z,24.61
2016-06-16T11:20:51.955Z,24.61
2016-06-16T11:21:52.036Z,24.56
2016-06-16T11:22:52.133Z,24.6
2016-06-16T11:23:51.855Z,24.61
2016-06-16T11:24:51.827Z,24.71
2016-06-16T11:25:51.955Z,24.69
2016-06-16T11:26:51.800Z,24.76
2016-06-16T11:27:52.023Z,24.73
2016-06-16T11:28:51.979Z,24.67
2016-06-16T11:29:52.264Z,24.73
2016-06-16T11:30:51.782Z,24.71
2016-06-16T11:31:51.723Z,24.76
2016-06-16T11:32:51.710Z,24.73
2016-06-16T11:33:51.933Z,24.73
2016-06-16T11:34:51.763Z,24.71
2016-06-16T11:35:51.798Z,24.68
2016-06-16T11:36:51.879Z,24.83
2016-06-16T11:37:51.850Z,24.77
2016-06-16T11:38:51.978Z,24.73
2016-06-16T11:39:55.091Z,24.71
2016-06-16T11:40:51.876Z,24.69
2016-06-16T11:41:51.644Z,24.71
2016-06-16T11:42:51.897Z,24.71
2016-06-16T11:43:51.681Z,24.67
2016-06-16T11:44:51.856Z,24.71
2016-06-16T11:45:51.531Z,24.79
2016-06-16T11:46:51.691Z,24.79
2016-06-16T11:47:51.693Z,24.83
2016-06-16T11:48:51.775Z,24.79
2016-06-16T11:49:51.387Z,24.82
2016-06-16T11:50:51.359Z,24.8
2016-06-16T11:51:51.425Z,24.76
2016-06-16T11:52:51.334Z,24.75
2016-06-16T11:53:51.447Z,24.83
2016-06-16T11:54:51.278Z,24.79
2016-06-16T11:55:51.312Z,24.77
2016-06-16T11:56:51.550Z,24.76
2016-06-16T11:57:51.240Z,24.82
2016-06-16T11:58:51.275Z,24.87
2016-06-16T11:59:51.200Z,24.8
2016-06-16T12:00:51.062Z,24.82
2016-06-16T12:01:51.269Z,24.83
2016-06-16T12:02:51.209Z,24.9
2016-06-16T12:03:51.227Z,24.9
2016-06-16T12:04:51.200Z,24.92
2016-06-16T12:05:51.062Z,24.95
2016-06-16T12:06:51.049Z,24.95
2016-06-16T12:07:50.865Z,24.85
2016-06-16T12:08:50.930Z,24.94
2016-06-16T12:09:50.996Z,24.91
2016-06-16T12:10:50.811Z,24.94
2016-06-16T12:11:51.174Z,24.9
2016-06-16T12:12:55.114Z,24.95
2016-06-16T12:13:51.039Z,24.94
2016-06-16T12:14:54.121Z,24.77
2016-06-16T12:15:50.874Z,24.94
2016-06-16T12:16:50.861Z,24.79
2016-06-16T12:17:51.083Z,24.85
2016-06-16T12:18:50.836Z,24.82
2016-06-16T12:19:51.011Z,24.83
2016-06-16T12:20:50.780Z,24.79
2016-06-16T12:21:50.627Z,24.79
2016-06-16T12:22:50.880Z,24.83
2016-06-16T12:23:50.679Z,24.87
2016-06-16T12:24:50.558Z,24.8
2016-06-16T12:25:51.076Z,24.82
2016-06-16T12:26:50.688Z,24.77
2016-06-16T12:27:50.676Z,24.68
2016-06-16T12:28:50.883Z,24.64
2016-06-16T12:29:50.870Z,24.77
2016-06-16T12:30:50.826Z,24.8
2016-06-16T12:31:50.767Z,24.75
2016-06-16T12:32:50.598Z,24.68
2016-06-16T12:33:50.523Z,24.82
2016-06-16T12:34:50.182Z,24.82
2016-06-16T12:35:50.373Z,24.76
2016-06-16T12:36:50.610Z,24.83
2016-06-16T12:37:50.661Z,24.87
2016-06-16T12:38:51.070Z,24.85
2016-06-16T12:39:51.338Z,24.85
2016-06-16T12:40:50.701Z,24.88
2016-06-16T12:41:50.500Z,24.85
2016-06-16T12:42:50.409Z,24.88
2016-06-16T12:43:50.351Z,24.85
2016-06-16T12:44:50.603Z,24.83
2016-06-16T12:45:50.669Z,24.88
2016-06-16T12:46:50.500Z,24.79
2016-06-16T12:47:50.363Z,24.79
2016-06-16T12:48:50.225Z,24.85
2016-06-16T12:49:50.259Z,24.87
2016-06-16T12:50:50.606Z,24.79
2016-06-16T12:51:50.048Z,24.79
2016-06-16T12:52:50.254Z,24.83
2016-06-16T12:58:57.240Z,24.68
2016-06-16T12:59:57.259Z,24.73
2016-06-16T13:00:57.325Z,24.68
2016-06-16T13:01:57.188Z,24.73
2016-06-16T13:02:56.785Z,24.77
2016-06-16T13:03:57.256Z,24.76
2016-06-16T13:04:57.463Z,24.73
2016-06-16T13:05:57.308Z,24.63
2016-06-16T13:06:57.328Z,24.68
2016-06-16T13:07:57.331Z,24.71
2016-06-16T13:08:57.350Z,24.63
2016-06-16T13:09:57.649Z,24.63
2016-06-16T13:10:57.060Z,24.6
2016-06-16T13:11:57.110Z,24.64
2016-06-16T13:12:57.269Z,24.64
2016-06-16T13:13:57.069Z,24.68